Time,TemperatureF,DewpointF,PressureIn,WindDirection,WindDirectionDegrees,WindSpeedMPH,WindSpeedGustMPH,Humidity,HourlyPrecipIn,Conditions,Clouds,dailyrainin,SoftwareType,DateUTC
2013-05-30 00:08:00,63.5,58.0,30.24,South,170,0.0,1.0,81,0.00,,,0.00,weatherlink.com 1.10,2013-05-30 04:08:00,
2013-05-30 00:24:00,63.1,57.0,30.24,South,170,0.0,1.0,81,0.00,,,0.00,weatherlink.com 1.10,2013-05-30 04:24:00,
2013-05-30 00:38:00,62.8,57.0,30.23,South,170,0.0,1.0,82,0.00,,,0.00,weatherlink.com 1.10,2013-05-30 04:38:00,
2013-05-30 00:53:00,62.4,57.0,30.23,South,170,0.0,1.0,83,0.00,,,0.00,weatherlink.com 1.10,2013-05-30 04:53:00,
2013-05-30 01:08:00,62.2,57.0,30.23,South,170,0.0,0.0,83,0.00,,,0.00,weatherlink.com 1.10,2013-05-30 05:08:00,
2013-05-30 01:23:00,62.6,57.0,30.23,South,170,0.0,1.0,82,0.00,,,0.00,weatherlink.com 1.10,2013-05-30 05:23:00,
2013-05-30 01:38:00,62.4,57.0,30.23,South,170,0.0,1.0,82,0.00,,,0.00,weatherlink.com 1.10,2013-05-30 05:38:00,
2013-05-30 01:53:00,62.8,57.0,30.23,South,170,0.0,2.0,82,0.00,,,0.00,weatherlink.com 1.10,2013-05-30 05:53:00,
2013-05-30 02:08:00,62.8,57.0,30.22,South,170,0.0,1.0,82,0.00,,,0.00,weatherlink.com 1.10,2013-05-30 06:08:00,
2013-05-30 02:23:00,62.9,57.0,30.22,South,170,0.0,1.0,82,0.00,,,0.00,weatherlink.com 1.10,2013-05-30 06:23:00,
2013-05-30 02:38:00,62.8,57.0,30.21,South,170,0.0,1.0,82,0.00,,,0.00,weatherlink.com 1.10,2013-05-30 06:38:00,
2013-05-30 02:53:00,62.7,57.0,30.21,South,170,0.0,1.0,82,0.00,,,0.00,weatherlink.com 1.10,2013-05-30 06:53:00,
2013-05-30 03:08:00,62.3,57.0,30.21,South,170,0.0,1.0,83,0.00,,,0.00,weatherlink.com 1.10,2013-05-30 07:08:00,
2013-05-30 03:23:00,61.8,57.0,30.21,South,170,0.0,1.0,85,0.00,,,0.00,weatherlink.com 1.10,2013-05-30 07:23:00,
2013-05-30 03:38:00,60.9,57.0,30.21,South,170,0.0,0.0,87,0.00,,,0.00,weatherlink.com 1.10,2013-05-30 07:38:00,
2013-05-30 03:53:00,60.8,57.0,30.22,South,170,0.0,0.0,87,0.00,,,0.00,weatherlink.com 1.10,2013-05-30 07:53:00,
2013-05-30 04:08:00,60.6,57.0,30.22,South,170,0.0,0.0,88,0.00,,,0.00,weatherlink.com 1.10,2013-05-30 08:08:00,
2013-05-30 04:23:00,60.6,57.0,30.22,South,170,0.0,2.0,89,0.00,,,0.00,weatherlink.com 1.10,2013-05-30 08:23:00,
2013-05-30 04:38:00,60.6,58.0,30.23,South,170,0.0,2.0,90,0.00,,,0.00,weatherlink.com 1.10,2013-05-30 08:38:00,
2013-05-30 04:53:00,60.4,58.0,30.23,South,170,0.0,4.0,90,0.00,,,0.00,weatherlink.com 1.10,2013-05-30 08:53:00,
2013-05-30 05:08:00,60.1,58.0,30.23,South,169,0.0,5.0,91,0.00,,,0.00,weatherlink.com 1.10,2013-05-30 09:08:00,
2013-05-30 05:23:00,60.5,58.0,30.23,SSE,167,3.0,6.0,91,0.00,,,0.00,weatherlink.com 1.10,2013-05-30 09:23:00,
2013-05-30 05:38:00,60.4,58.0,30.23,SSE,168,2.0,7.0,91,0.00,,,0.00,weatherlink.com 1.10,2013-05-30 09:38:00,
2013-05-30 05:53:00,60.2,58.0,30.24,SSE,167,3.0,7.0,91,0.00,,,0.00,weatherlink.com 1.10,2013-05-30 09:53:00,
2013-05-30 06:08:00,60.2,58.0,30.24,SSE,167,3.0,7.0,91,0.00,,,0.00,weatherlink.com 1.10,2013-05-30 10:08:00,
2013-05-30 06:23:00,60.4,58.0,30.25,SSE,167,4.0,8.0,91,0.00,,,0.00,weatherlink.com 1.10,2013-05-30 10:23:00,
2013-05-30 06:38:00,60.6,58.0,30.25,SSE,166,3.0,7.0,91,0.00,,,0.00,weatherlink.com 1.10,2013-05-30 10:38:00,
2013-05-30 06:53:00,61.1,58.0,30.25,SSE,167,3.0,8.0,90,0.00,,,0.00,weatherlink.com 1.10,2013-05-30 10:53:00,
2013-05-30 07:08:00,61.6,58.0,30.25,SSE,167,3.0,8.0,89,0.00,,,0.00,weatherlink.com 1.10,2013-05-30 11:08:00,
2013-05-30 07:24:00,62.0,59.0,30.25,SSE,166,6.0,9.0,88,0.00,,,0.00,weatherlink.com 1.10,2013-05-30 11:24:00,
2013-05-30 07:39:00,62.8,59.0,30.26,SSE,167,3.0,6.0,87,0.00,,,0.00,weatherlink.com 1.10,2013-05-30 11:39:00,
2013-05-30 07:54:00,64.0,59.0,30.26,SSE,167,1.0,3.0,84,0.00,,,0.00,weatherlink.com 1.10,2013-05-30 11:54:00,
2013-05-30 08:09:00,65.4,60.0,30.27,SSE,167,0.0,3.0,82,0.00,,,0.00,weatherlink.com 1.10,2013-05-30 12:09:00,
2013-05-30 08:24:00,64.9,59.0,30.27,SSE,167,0.0,3.0,82,0.00,,,0.00,weatherlink.com 1.10,2013-05-30 12:24:00,
2013-05-30 08:39:00,65.5,60.0,30.27,SSE,167,2.0,3.0,81,0.00,,,0.00,weatherlink.com 1.10,2013-05-30 12:39:00,
2013-05-30 08:54:00,66.7,60.0,30.28,SSE,167,0.0,4.0,79,0.00,,,0.00,weatherlink.com 1.10,2013-05-30 12:54:00,
2013-05-30 09:09:00,66.1,60.0,30.28,SSE,167,1.0,3.0,80,0.00,,,0.00,weatherlink.com 1.10,2013-05-30 13:09:00,
2013-05-30 09:24:00,67.1,60.0,30.28,SSE,167,1.0,2.0,79,0.00,,,0.00,weatherlink.com 1.10,2013-05-30 13:24:00,
2013-05-30 09:39:00,67.5,61.0,30.29,SSE,167,0.0,2.0,79,0.00,,,0.00,weatherlink.com 1.10,2013-05-30 13:39:00,
2013-05-30 09:54:00,68.0,61.0,30.29,SSE,167,0.0,4.0,77,0.00,,,0.00,weatherlink.com 1.10,2013-05-30 13:54:00,
2013-05-30 10:09:00,70.1,61.0,30.29,SSE,167,0.0,2.0,74,0.00,,,0.00,weatherlink.com 1.10,2013-05-30 14:09:00,
2013-05-30 10:24:00,71.3,61.0,30.29,SSE,167,2.0,5.0,70,0.00,,,0.00,weatherlink.com 1.10,2013-05-30 14:24:00,
2013-05-30 10:39:00,71.8,62.0,30.29,SSE,167,1.0,3.0,70,0.00,,,0.00,weatherlink.com 1.10,2013-05-30 14:39:00,
2013-05-30 10:54:00,73.1,61.0,30.28,SSE,167,1.0,4.0,66,0.00,,,0.00,weatherlink.com 1.10,2013-05-30 14:54:00,
2013-05-30 11:09:00,73.4,62.0,30.28,SSE,167,1.0,5.0,68,0.00,,,0.00,weatherlink.com 1.10,2013-05-30 15:09:00,
2013-05-30 11:24:00,76.3,64.0,30.28,SSE,167,0.0,3.0,65,0.00,,,0.00,weatherlink.com 1.10,2013-05-30 15:24:00,
2013-05-30 11:39:00,77.3,63.0,30.28,SSE,167,1.0,4.0,62,0.00,,,0.00,weatherlink.com 1.10,2013-05-30 15:39:00,
2013-05-30 11:54:00,76.2,62.0,30.28,SSE,167,2.0,4.0,62,0.00,,,0.00,weatherlink.com 1.10,2013-05-30 15:54:00,
2013-05-30 12:09:00,73.3,61.0,30.28,SSE,167,0.0,3.0,66,0.00,,,0.00,weatherlink.com 1.10,2013-05-30 16:09:00,
2013-05-30 12:24:00,75.4,65.0,30.28,SSE,167,0.0,2.0,70,0.00,,,0.00,weatherlink.com 1.10,2013-05-30 16:24:00,
2013-05-30 12:39:00,73.8,63.0,30.27,SSE,167,2.0,3.0,69,0.00,,,0.00,weatherlink.com 1.10,2013-05-30 16:39:00,
2013-05-30 12:54:00,72.8,62.0,30.27,SSE,167,1.0,3.0,69,0.00,,,0.00,weatherlink.com 1.10,2013-05-30 16:54:00,
2013-05-30 13:09:00,72.2,64.0,30.26,SSE,167,2.0,4.0,74,0.00,,,0.00,weatherlink.com 1.10,2013-05-30 17:09:00,
2013-05-30 13:24:00,74.2,63.0,30.26,SSE,167,0.0,4.0,67,0.00,,,0.00,weatherlink.com 1.10,2013-05-30 17:24:00,
2013-05-30 13:39:00,75.6,63.0,30.25,SSE,167,2.0,4.0,66,0.00,,,0.00,weatherlink.com 1.10,2013-05-30 17:39:00,
2013-05-30 13:54:00,75.4,65.0,30.25,SSE,167,3.0,3.0,70,0.00,,,0.00,weatherlink.com 1.10,2013-05-30 17:54:00,
2013-05-30 14:09:00,76.8,65.0,30.25,SSE,167,2.0,4.0,68,0.00,,,0.00,weatherlink.com 1.10,2013-05-30 18:09:00,
2013-05-30 14:24:00,76.8,64.0,30.25,SSE,167,2.0,4.0,65,0.00,,,0.00,weatherlink.com 1.10,2013-05-30 18:24:00,
2013-05-30 14:39:00,77.5,64.0,30.24,SSE,167,2.0,4.0,64,0.00,,,0.00,weatherlink.com 1.10,2013-05-30 18:39:00,
2013-05-30 14:54:00,76.8,65.0,30.24,SSE,167,2.0,4.0,67,0.00,,,0.00,weatherlink.com 1.10,2013-05-30 18:54:00,
2013-05-30 15:09:00,75.7,64.0,30.24,SSE,167,1.0,5.0,66,0.00,,,0.00,weatherlink.com 1.10,2013-05-30 19:09:00,
2013-05-30 15:24:00,75.7,64.0,30.23,SSE,167,1.0,4.0,66,0.00,,,0.00,weatherlink.com 1.10,2013-05-30 19:24:00,
2013-05-30 15:39:00,74.4,63.0,30.23,SSE,167,1.0,3.0,67,0.00,,,0.00,weatherlink.com 1.10,2013-05-30 19:39:00,
2013-05-30 15:54:00,73.5,62.0,30.23,South,169,0.0,5.0,68,0.00,,,0.00,weatherlink.com 1.10,2013-05-30 19:54:00,
2013-05-30 16:09:00,73.7,63.0,30.23,South,169,1.0,4.0,69,0.00,,,0.00,weatherlink.com 1.10,2013-05-30 20:09:00,
2013-05-30 16:24:00,72.5,61.0,30.23,South,169,1.0,3.0,68,0.00,,,0.00,weatherlink.com 1.10,2013-05-30 20:24:00,
2013-05-30 16:39:00,71.4,62.0,30.22,South,169,0.0,3.0,71,0.00,,,0.00,weatherlink.com 1.10,2013-05-30 20:39:00,
2013-05-30 16:54:00,70.6,62.0,30.22,South,169,2.0,2.0,73,0.00,,,0.00,weatherlink.com 1.10,2013-05-30 20:54:00,
2013-05-30 17:09:00,70.3,61.0,30.22,South,169,1.0,2.0,73,0.00,,,0.00,weatherlink.com 1.10,2013-05-30 21:09:00,
2013-05-30 17:24:00,71.0,62.0,30.22,South,169,0.0,3.0,72,0.00,,,0.00,weatherlink.com 1.10,2013-05-30 21:24:00,
2013-05-30 17:39:00,71.8,61.0,30.22,South,169,2.0,3.0,68,0.00,,,0.00,weatherlink.com 1.10,2013-05-30 21:39:00,
2013-05-30 17:54:00,70.8,60.0,30.21,South,169,1.0,3.0,69,0.00,,,0.00,weatherlink.com 1.10,2013-05-30 21:54:00,
2013-05-30 18:10:00,70.9,61.0,30.21,South,169,0.0,3.0,71,0.00,,,0.00,weatherlink.com 1.10,2013-05-30 22:10:00,
2013-05-30 18:25:00,70.0,61.0,30.21,South,169,0.0,3.0,72,0.00,,,0.00,weatherlink.com 1.10,2013-05-30 22:25:00,
2013-05-30 18:40:00,68.8,60.0,30.21,South,169,1.0,3.0,74,0.00,,,0.00,weatherlink.com 1.10,2013-05-30 22:40:00,
2013-05-30 18:55:00,67.9,59.0,30.21,South,169,1.0,2.0,74,0.00,,,0.00,weatherlink.com 1.10,2013-05-30 22:55:00,
2013-05-30 19:10:00,67.1,59.0,30.21,South,169,1.0,2.0,76,0.00,,,0.00,weatherlink.com 1.10,2013-05-30 23:10:00,
2013-05-30 19:25:00,66.5,59.0,30.21,South,169,0.0,3.0,76,0.00,,,0.00,weatherlink.com 1.10,2013-05-30 23:25:00,
2013-05-30 19:40:00,66.8,58.0,30.21,South,169,0.0,2.0,74,0.00,,,0.00,weatherlink.com 1.10,2013-05-30 23:40:00,
2013-05-30 19:55:00,66.3,58.0,30.21,South,169,1.0,2.0,75,0.00,,,0.00,weatherlink.com 1.10,2013-05-30 23:55:00,
2013-05-30 20:10:00,66.1,58.0,30.22,South,169,0.0,1.0,76,0.00,,,0.00,weatherlink.com 1.10,2013-05-31 00:10:00,
2013-05-30 20:25:00,65.7,58.0,30.21,South,169,0.0,2.0,76,0.00,,,0.00,weatherlink.com 1.10,2013-05-31 00:25:00,
2013-05-30 20:40:00,65.5,58.0,30.22,South,170,1.0,6.0,77,0.00,,,0.00,weatherlink.com 1.10,2013-05-31 00:40:00,
2013-05-30 20:55:00,64.6,58.0,30.22,South,170,0.0,1.0,78,0.00,,,0.00,weatherlink.com 1.10,2013-05-31 00:55:00,
2013-05-30 21:10:00,64.2,58.0,30.22,South,170,0.0,2.0,79,0.00,,,0.00,weatherlink.com 1.10,2013-05-31 01:10:00,
2013-05-30 21:25:00,64.1,57.0,30.23,South,170,1.0,1.0,79,0.00,,,0.00,weatherlink.com 1.10,2013-05-31 01:25:00,
2013-05-30 21:40:00,63.7,58.0,30.23,South,170,0.0,1.0,81,0.00,,,0.00,weatherlink.com 1.10,2013-05-31 01:40:00,
2013-05-30 21:55:00,63.6,58.0,30.23,South,170,1.0,1.0,81,0.00,,,0.00,weatherlink.com 1.10,2013-05-31 01:55:00,
2013-05-30 22:10:00,63.3,58.0,30.23,South,170,0.0,1.0,83,0.00,,,0.00,weatherlink.com 1.10,2013-05-31 02:10:00,
2013-05-30 22:25:00,62.7,58.0,30.23,South,170,0.0,0.0,83,0.00,,,0.00,weatherlink.com 1.10,2013-05-31 02:25:00,
2013-05-30 22:40:00,62.9,58.0,30.23,South,170,1.0,2.0,83,0.00,,,0.00,weatherlink.com 1.10,2013-05-31 02:40:00,
2013-05-30 22:55:00,62.5,57.0,30.23,South,170,1.0,2.0,83,0.00,,,0.00,weatherlink.com 1.10,2013-05-31 02:55:00,
2013-05-30 23:10:00,62.2,58.0,30.23,South,170,1.0,1.0,85,0.00,,,0.00,weatherlink.com 1.10,2013-05-31 03:10:00,
2013-05-30 23:25:00,63.1,58.0,30.23,South,170,1.0,2.0,83,0.00,,,0.00,weatherlink.com 1.10,2013-05-31 03:25:00,
2013-05-30 23:40:00,63.2,58.0,30.23,South,170,0.0,2.0,82,0.00,,,0.00,weatherlink.com 1.10,2013-05-31 03:40:00,
2013-05-30 23:55:00,63.0,58.0,30.23,South,170,1.0,2.0,83,0.00,,,0.00,weatherlink.com 1.10,2013-05-31 03:55:00,